Time;durP1;ratioP1;P1;durP2;ratioP2;P2;SDS_P1;SDS_P2;PMS_P1;PMS_P2;Temp;Humidity;BMP_temperature;BMP_pressure;BME280_temperature;BME280_humidity;BME280_pressure;Samples;Min_cycle;Max_cycle;Signal;HPM_P1;HPM_P2
2021/10/02 00:45:07;;;;;;;31.47;18.10;;;8.90;99.90;;;;;;4411725;32;20139;-66
2021/10/02 00:47:52;;;;;;;30.27;17.40;;;8.90;99.90;;;;;;4412366;32;20132;-66
2021/10/02 00:51:00;;;;;;;31.97;17.90;;;8.90;99.90;;;;;;4412463;32;20450;-66
2021/10/02 00:53:48;;;;;;;29.40;17.27;;;8.90;99.90;;;;;;4334948;33;20195;-66
2021/10/02 00:56:28;;;;;;;31.17;17.90;;;8.90;99.90;;;;;;4334868;33;20195;-66
2021/10/02 00:59:20;;;;;;;28.03;16.60;;;8.90;99.90;;;;;;4333317;33;20145;-67
2021/10/02 01:02:25;;;;;;;30.07;17.87;;;9.00;99.90;;;;;;4333427;33;20153;-66
2021/10/02 01:05:26;;;;;;;26.60;17.00;;;9.00;99.90;;;;;;4335171;33;20141;-67
2021/10/02 01:08:19;;;;;;;32.57;17.30;;;9.00;99.90;;;;;;4335242;33;20155;-66
2021/10/02 01:14:25;;;;;;;32.57;18.00;;;8.90;99.90;;;;;;4325449;33;20180;-66
2021/10/02 01:17:09;;;;;;;34.47;18.07;;;8.90;99.90;;;;;;4335086;33;20164;-65
2021/10/02 01:20:06;;;;;;;30.53;16.97;;;8.90;99.90;;;;;;4333362;33;20175;-66
2021/10/02 01:23:13;;;;;;;33.50;17.60;;;8.90;99.90;;;;;;4332991;33;20220;-66
2021/10/02 01:26:37;;;;;;;32.00;17.63;;;8.90;99.90;;;;;;4334296;33;20180;-66
2021/10/02 01:29:16;;;;;;;32.23;17.37;;;8.90;99.90;;;;;;4337904;32;20713;-66
2021/10/02 01:32:23;;;;;;;36.63;18.03;;;8.80;99.90;;;;;;4411815;32;20162;-66
2021/10/02 01:47:15;;;;;;;38.43;18.73;;;8.90;99.90;;;;;;4409877;32;20177;-66
2021/10/02 01:49:56;;;;;;;37.53;18.87;;;9.00;99.90;;;;;;4409691;32;20185;-67
2021/10/02 01:52:42;;;;;;;36.43;18.43;;;9.00;99.90;;;;;;4409594;32;20139;-66
2021/10/02 01:55:32;;;;;;;37.37;18.93;;;9.00;99.90;;;;;;4409527;32;20450;-67
2021/10/02 01:58:17;;;;;;;39.73;18.87;;;9.00;99.90;;;;;;4411201;32;20139;-66
2021/10/02 02:01:05;;;;;;;37.43;18.60;;;9.00;99.90;;;;;;4409720;32;20207;-66
2021/10/02 02:04:35;;;;;;;39.17;19.43;;;9.10;99.90;;;;;;4411304;32;20335;-65
2021/10/02 02:06:59;;;;;;;35.93;19.33;;;9.10;99.90;;;;;;4407457;32;20170;-66
2021/10/02 02:13:11;;;;;;;40.27;20.13;;;9.20;99.90;;;;;;4376796;32;20180;-67
2021/10/02 02:16:00;;;;;;;39.33;20.50;;;9.20;99.90;;;;;;4378583;32;20152;-67
2021/10/02 02:18:44;;;;;;;43.13;21.17;;;9.30;99.90;;;;;;4376514;32;20178;-66
2021/10/02 02:21:37;;;;;;;41.97;21.67;;;9.30;99.90;;;;;;4376759;32;20144;-66
2021/10/02 02:24:31;;;;;;;42.47;21.30;;;9.30;99.90;;;;;;4377832;32;20162;-66
2021/10/02 02:27:11;;;;;;;42.13;21.47;;;9.30;99.90;;;;;;4377356;32;20539;-67
2021/10/02 02:30:31;;;;;;;43.17;21.80;;;9.30;99.90;;;;;;4378084;32;20181;-67
2021/10/02 02:33:36;;;;;;;41.60;21.03;;;9.40;99.90;;;;;;4333762;33;20149;-66
2021/10/02 02:37:05;;;;;;;40.10;21.03;;;9.40;99.90;;;;;;4275719;33;20143;-67
2021/10/02 02:39:44;;;;;;;47.67;21.70;;;9.40;99.90;;;;;;4274370;33;20460;-67
2021/10/02 02:42:24;;;;;;;43.13;21.17;;;9.40;99.90;;;;;;4274195;33;20165;-67
2021/10/02 02:45:32;;;;;;;43.53;21.37;;;9.50;99.90;;;;;;4275823;33;20206;-67
2021/10/02 02:48:46;;;;;;;43.37;22.80;;;9.50;99.90;;;;;;4273973;33;20170;-67
2021/10/02 02:51:52;;;;;;;45.50;21.80;;;9.60;99.90;;;;;;4290307;33;20165;-67
2021/10/02 02:58:42;;;;;;;41.87;20.77;;;9.60;99.90;;;;;;4274338;33;20221;-66
2021/10/02 03:01:25;;;;;;;37.97;20.30;;;9.70;99.90;;;;;;4275486;33;20444;-66
2021/10/02 03:04:38;;;;;;;36.17;19.40;;;9.70;99.90;;;;;;4232928;34;20411;-66
2021/10/02 03:07:54;;;;;;;39.63;19.60;;;9.60;99.90;;;;;;4258761;33;20249;-66
2021/10/02 03:10:48;;;;;;;38.30;19.30;;;9.60;99.90;;;;;;4261417;33;20162;-66
2021/10/02 03:13:37;;;;;;;37.57;19.30;;;9.60;99.90;;;;;;4297693;33;20555;-66
2021/10/02 03:16:23;;;;;;;36.00;18.33;;;9.60;99.90;;;;;;4320202;33;20157;-67
2021/10/02 03:19:12;;;;;;;36.67;17.83;;;9.70;99.90;;;;;;4319022;33;20475;-66
2021/10/02 03:21:56;;;;;;;35.33;17.60;;;9.70;99.90;;;;;;4319104;33;20440;-68
2021/10/02 03:24:49;;;;;;;36.10;18.50;;;9.70;99.90;;;;;;4319747;33;20183;-67
2021/10/02 03:27:28;;;;;;;34.23;17.73;;;9.70;99.90;;;;;;4320981;33;20562;-67
2021/10/02 03:30:07;;;;;;;35.10;17.20;;;9.70;99.90;;;;;;4380187;32;20175;-67
2021/10/02 03:33:20;;;;;;;41.03;20.23;;;9.70;99.90;;;;;;4380443;32;20136;-66
2021/10/02 03:36:13;;;;;;;37.83;17.10;;;9.70;99.90;;;;;;4407833;32;20167;-66
2021/10/02 03:38:51;;;;;;;34.47;17.40;;;9.70;99.90;;;;;;4410428;32;20157;-67
2021/10/02 03:41:33;;;;;;;34.27;16.90;;;9.70;99.90;;;;;;4412452;32;20173;-67
2021/10/02 03:44:07;;;;;;;35.47;17.53;;;9.70;99.90;;;;;;4410797;32;20189;-67
2021/10/02 03:47:22;;;;;;;42.83;18.43;;;9.70;99.90;;;;;;4409421;32;20161;-66
2021/10/02 03:50:03;;;;;;;33.87;15.90;;;9.70;99.90;;;;;;4402909;32;20193;-66
2021/10/02 03:52:44;;;;;;;37.67;16.90;;;9.70;99.90;;;;;;4397814;32;20364;-66
2021/10/02 03:55:27;;;;;;;34.63;15.83;;;9.60;99.90;;;;;;4397289;32;20470;-67
2021/10/02 03:58:10;;;;;;;37.07;16.70;;;9.60;99.90;;;;;;4395771;32;20155;-67
2021/10/02 04:00:40;;;;;;;38.17;16.70;;;9.60;99.90;;;;;;4397329;32;20367;-67
2021/10/02 04:03:17;;;;;;;36.00;16.13;;;9.60;99.90;;;;;;4397173;32;20518;-66
2021/10/02 04:06:03;;;;;;;34.70;15.60;;;9.60;99.90;;;;;;4396721;32;20167;-66
2021/10/02 04:08:43;;;;;;;38.60;16.63;;;9.60;99.90;;;;;;4395514;32;20135;-66
2021/10/02 04:11:37;;;;;;;34.87;15.83;;;9.60;99.90;;;;;;4398727;32;20513;-66
2021/10/02 04:14:56;;;;;;;35.73;15.80;;;9.60;99.90;;;;;;4405636;32;20147;-67
2021/10/02 04:17:24;;;;;;;38.63;16.30;;;9.60;99.90;;;;;;4410298;32;20188;-66
2021/10/02 04:20:01;;;;;;;34.93;15.23;;;9.60;99.90;;;;;;4410330;32;20169;-66
2021/10/02 04:22:47;;;;;;;33.77;15.87;;;9.50;99.90;;;;;;4411827;32;20131;-66
2021/10/02 04:25:35;;;;;;;34.63;16.43;;;9.50;99.90;;;;;;4412289;32;20136;-67
2021/10/02 04:28:06;;;;;;;40.80;16.53;;;9.50;99.90;;;;;;4410580;32;20169;-67
2021/10/02 04:31:03;;;;;;;37.10;16.20;;;9.60;99.90;;;;;;4427027;32;20195;-67
2021/10/02 04:33:50;;;;;;;32.93;14.97;;;9.50;99.90;;;;;;4427036;32;20135;-67
2021/10/02 04:36:29;;;;;;;35.60;15.77;;;9.50;99.90;;;;;;4425319;32;20184;-66
2021/10/02 04:39:33;;;;;;;37.97;16.20;;;9.60;99.90;;;;;;4427426;32;20184;-66
2021/10/02 04:42:13;;;;;;;37.50;16.00;;;9.60;99.90;;;;;;4426986;32;20453;-66
2021/10/02 04:44:59;;;;;;;38.40;16.57;;;9.60;99.90;;;;;;4427050;32;20468;-66
2021/10/02 04:47:35;;;;;;;39.70;16.23;;;9.60;99.90;;;;;;4425085;32;20237;-66
2021/10/02 04:50:27;;;;;;;36.30;16.47;;;9.60;99.90;;;;;;4426856;32;20207;-66
2021/10/02 04:53:10;;;;;;;36.97;16.87;;;9.70;99.90;;;;;;4423639;32;20590;-67
2021/10/02 04:56:00;;;;;;;37.17;16.57;;;9.80;99.90;;;;;;4426552;32;20177;-67
2021/10/02 04:58:43;;;;;;;35.23;16.23;;;9.80;99.90;;;;;;4425200;32;20131;-68
2021/10/02 05:01:24;;;;;;;38.83;15.87;;;9.80;99.90;;;;;;4426915;32;20139;-67
2021/10/02 05:04:38;;;;;;;34.17;15.40;;;9.80;99.90;;;;;;4421033;32;20159;-67
2021/10/02 05:07:20;;;;;;;37.10;15.77;;;9.80;99.90;;;;;;4421704;32;20399;-68
2021/10/02 05:10:16;;;;;;;37.93;16.33;;;9.80;99.90;;;;;;4410516;32;20170;-67
2021/10/02 05:13:38;;;;;;;36.37;15.93;;;9.80;99.90;;;;;;4405925;32;20236;-67
2021/10/02 05:16:12;;;;;;;37.27;15.83;;;9.80;99.90;;;;;;4410523;32;20181;-65
2021/10/02 05:19:05;;;;;;;39.07;16.97;;;9.80;99.90;;;;;;4410225;32;20421;-67
2021/10/02 05:22:15;;;;;;;40.70;16.47;;;9.90;99.90;;;;;;4409747;32;20172;-67
2021/10/02 05:25:06;;;;;;;38.73;16.87;;;9.90;99.90;;;;;;4411321;32;20209;-66
2021/10/02 05:28:08;;;;;;;41.33;16.53;;;9.90;99.90;;;;;;4408317;32;20195;-66
2021/10/02 05:30:55;;;;;;;41.93;18.07;;;9.90;99.90;;;;;;4411532;32;20136;-67
2021/10/02 05:33:49;;;;;;;41.27;17.13;;;9.90;99.90;;;;;;4410991;32;20169;-67
2021/10/02 05:36:28;;;;;;;38.20;17.27;;;10.00;99.90;;;;;;4410834;32;20174;-67
2021/10/02 05:39:03;;;;;;;42.70;17.43;;;10.00;99.90;;;;;;4411112;32;20188;-68
2021/10/02 05:42:08;;;;;;;37.33;16.93;;;10.00;99.90;;;;;;4384651;32;20277;-67
2021/10/02 05:44:45;;;;;;;38.57;16.63;;;10.00;99.90;;;;;;4376322;32;20525;-66
2021/10/02 05:47:21;;;;;;;41.83;17.30;;;9.90;99.90;;;;;;4378227;32;20156;-66
2021/10/02 05:50:03;;;;;;;40.03;17.20;;;9.90;99.90;;;;;;4378754;32;20402;-66
2021/10/02 05:52:54;;;;;;;39.60;17.10;;;9.90;99.90;;;;;;4318747;33;20476;-66
2021/10/02 05:55:39;;;;;;;40.00;17.23;;;10.00;99.90;;;;;;4317479;33;20184;-66
2021/10/02 05:58:32;;;;;;;40.83;16.63;;;10.10;99.90;;;;;;4261712;33;20167;-66
2021/10/02 06:01:41;;;;;;;42.00;17.50;;;10.00;99.90;;;;;;4260371;33;20190;-66
2021/10/02 06:04:33;;;;;;;40.17;17.17;;;10.00;99.90;;;;;;4217588;34;20481;-67
2021/10/02 06:07:20;;;;;;;40.47;17.00;;;10.10;99.90;;;;;;4217959;34;20165;-67
2021/10/02 06:10:24;;;;;;;40.70;17.43;;;10.10;99.90;;;;;;4218817;34;20200;-68
2021/10/02 06:13:21;;;;;;;43.57;17.20;;;10.20;99.90;;;;;;4230265;33;20190;-67
2021/10/02 06:16:05;;;;;;;39.70;16.67;;;10.10;99.90;;;;;;4246578;33;20144;-67
2021/10/02 06:18:38;;;;;;;44.27;17.50;;;10.10;99.90;;;;;;4304686;33;20650;-67
2021/10/02 06:21:33;;;;;;;45.60;16.90;;;10.10;99.90;;;;;;4304524;33;20217;-66
2021/10/02 06:24:19;;;;;;;38.23;16.67;;;10.10;99.90;;;;;;4333657;33;20522;-67
2021/10/02 06:26:54;;;;;;;38.80;17.33;;;10.10;99.90;;;;;;4332416;33;20455;-67
2021/10/02 06:29:54;;;;;;;41.93;17.17;;;10.10;99.90;;;;;;4332790;33;20141;-67
2021/10/02 06:32:32;;;;;;;38.43;16.77;;;10.10;99.90;;;;;;4333703;33;20167;-67
2021/10/02 06:35:08;;;;;;;40.70;16.93;;;10.20;99.90;;;;;;4332038;33;20418;-67
2021/10/02 06:38:20;;;;;;;40.03;17.27;;;10.20;99.90;;;;;;4333566;33;20450;-67
2021/10/02 06:44:22;;;;;;;37.57;17.40;;;10.20;99.90;;;;;;4372142;32;20221;-68
2021/10/02 06:47:14;;;;;;;40.83;16.87;;;10.30;99.90;;;;;;4377661;32;20140;-68
2021/10/02 06:49:57;;;;;;;43.97;16.67;;;10.20;99.90;;;;;;4390727;32;20174;-67
2021/10/02 06:52:48;;;;;;;39.37;16.93;;;10.30;99.90;;;;;;4425137;32;20142;-67
2021/10/02 06:55:31;;;;;;;38.33;17.20;;;10.30;99.90;;;;;;4424450;32;20402;-67
2021/10/02 06:58:11;;;;;;;41.03;18.00;;;10.40;99.90;;;;;;4423834;32;20139;-67
2021/10/02 07:00:59;;;;;;;38.73;17.20;;;10.40;99.90;;;;;;4424119;32;20143;-66
2021/10/02 07:03:50;;;;;;;42.33;17.30;;;10.40;99.90;;;;;;4425375;32;20245;-67
2021/10/02 07:06:56;;;;;;;38.50;17.13;;;10.40;99.90;;;;;;4409016;32;20598;-68
2021/10/02 07:09:32;;;;;;;42.63;17.63;;;10.40;99.90;;;;;;4425147;32;20200;-67
2021/10/02 07:12:11;;;;;;;42.17;16.27;;;10.40;99.90;;;;;;4423191;32;20143;-67
2021/10/02 07:14:57;;;;;;;39.73;17.33;;;10.50;99.90;;;;;;4423291;32;20235;-67
2021/10/02 07:17:37;;;;;;;38.73;16.63;;;10.50;99.90;;;;;;4423477;32;20198;-68
2021/10/02 07:20:58;;;;;;;35.77;16.00;;;10.50;99.90;;;;;;4417290;32;20205;-67
2021/10/02 07:23:37;;;;;;;41.37;16.80;;;10.60;99.90;;;;;;4372768;32;20148;-66
2021/10/02 07:26:43;;;;;;;33.60;16.23;;;10.60;99.90;;;;;;4377413;32;20155;-66
2021/10/02 07:29:33;;;;;;;34.63;15.33;;;10.60;99.90;;;;;;4376650;32;20213;-66
2021/10/02 07:32:08;;;;;;;33.77;15.33;;;10.70;99.90;;;;;;4377539;32;20144;-67
2021/10/02 07:35:20;;;;;;;31.53;15.13;;;10.70;99.90;;;;;;4377507;32;20160;-67
2021/10/02 07:38:04;;;;;;;36.03;15.70;;;10.70;99.90;;;;;;4375939;32;20223;-66
2021/10/02 07:40:57;;;;;;;32.93;15.63;;;10.80;99.90;;;;;;4375200;32;20176;-65
2021/10/02 07:43:35;;;;;;;30.03;15.53;;;10.80;99.90;;;;;;4375599;32;20174;-66
2021/10/02 07:46:15;;;;;;;31.70;15.03;;;10.90;99.90;;;;;;4375590;32;20147;-66
2021/10/02 07:49:08;;;;;;;34.13;15.23;;;11.00;99.90;;;;;;4331186;33;20516;-66
2021/10/02 07:52:08;;;;;;;32.23;15.90;;;11.00;99.90;;;;;;4328247;33;20554;-65
2021/10/02 07:54:56;;;;;;;33.60;15.53;;;11.10;99.90;;;;;;4317782;33;20207;-66
2021/10/02 07:57:46;;;;;;;32.00;15.80;;;11.20;99.90;;;;;;4316938;33;20169;-67
2021/10/02 08:00:50;;;;;;;;;;;;;;;;;;;;;
2021/10/02 08:03:25;;;;;;;36.53;16.57;;;11.30;99.90;;;;;;4377049;32;20511;-67
2021/10/02 08:06:03;;;;;;;31.07;15.33;;;11.40;99.90;;;;;;4377188;32;20143;-67
2021/10/02 08:08:47;;;;;;;31.57;16.50;;;11.40;99.90;;;;;;4377756;32;20156;-66
2021/10/02 08:11:22;;;;;;;31.90;16.27;;;11.50;99.90;;;;;;4379781;32;20187;-66
2021/10/02 08:14:13;;;;;;;31.97;16.67;;;11.60;99.90;;;;;;4377399;32;20187;-65
2021/10/02 08:16:56;;;;;;;31.37;16.17;;;11.70;99.90;;;;;;4379632;32;20145;-66
2021/10/02 08:19:55;;;;;;;31.67;16.63;;;11.80;99.90;;;;;;4320560;33;20163;-65
2021/10/02 08:22:38;;;;;;;31.30;16.33;;;11.80;99.90;;;;;;4335112;33;20573;-65
2021/10/02 08:25:29;;;;;;;30.40;16.43;;;11.90;99.90;;;;;;4334834;33;20185;-66
2021/10/02 08:28:19;;;;;;;29.03;16.00;;;11.90;99.90;;;;;;4339540;33;20156;-65
2021/10/02 08:31:20;;;;;;;31.77;16.40;;;12.00;99.90;;;;;;4304356;33;20146;-65
2021/10/02 08:34:29;;;;;;;32.47;16.60;;;12.00;99.90;;;;;;4305658;33;20169;-67
2021/10/02 08:37:05;;;;;;;29.43;16.37;;;12.00;99.90;;;;;;4304316;33;20280;-67
2021/10/02 08:39:50;;;;;;;29.70;15.93;;;11.90;99.90;;;;;;4304247;33;20165;-66
2021/10/02 08:42:40;;;;;;;30.93;15.77;;;11.90;99.90;;;;;;4303778;33;20169;-65
2021/10/02 08:45:23;;;;;;;31.17;16.17;;;11.90;99.90;;;;;;4305256;33;20141;-66
2021/10/02 08:48:17;;;;;;;29.60;16.23;;;12.00;99.90;;;;;;4305693;33;20495;-66
2021/10/02 08:51:30;;;;;;;29.10;15.70;;;12.10;99.90;;;;;;4303558;33;20216;-66
2021/10/02 08:54:37;;;;;;;25.53;14.27;;;12.20;99.90;;;;;;4305506;33;20157;-65
2021/10/02 08:57:27;;;;;;;25.07;14.57;;;12.30;99.90;;;;;;4284996;33;20526;-65
2021/10/02 09:00:27;;;;;;;25.27;14.73;;;12.50;99.90;;;;;;4248706;33;20309;-66
2021/10/02 09:03:03;;;;;;;26.07;15.03;;;12.60;99.90;;;;;;4247028;33;20135;-67
2021/10/02 09:06:10;;;;;;;25.43;14.67;;;12.80;99.90;;;;;;4249057;33;20147;-66
2021/10/02 09:09:21;;;;;;;24.57;14.47;;;12.80;99.90;;;;;;4290666;33;20199;-66
2021/10/02 09:12:21;;;;;;;25.83;14.83;;;12.80;99.90;;;;;;4276578;33;20166;-67
2021/10/02 09:15:03;;;;;;;25.50;14.37;;;12.70;99.90;;;;;;4275344;33;20150;-68
2021/10/02 09:18:03;;;;;;;25.30;14.37;;;12.70;99.90;;;;;;4276013;33;20172;-67
2021/10/02 09:20:42;;;;;;;23.00;14.07;;;12.60;99.90;;;;;;4274027;33;20190;-66
2021/10/02 09:27:01;;;;;;;23.33;13.57;;;12.60;99.90;;;;;;4290190;33;20185;-66
2021/10/02 09:29:59;;;;;;;23.93;13.80;;;12.70;99.90;;;;;;4289389;33;20500;-66
2021/10/02 09:33:10;;;;;;;22.90;13.70;;;12.90;99.90;;;;;;4248314;33;20140;-66
2021/10/02 09:35:54;;;;;;;21.20;12.53;;;13.00;99.90;;;;;;4247875;33;20203;-66
2021/10/02 09:38:30;;;;;;;22.40;13.23;;;13.10;99.90;;;;;;4286739;33;20134;-65
2021/10/02 09:41:06;;;;;;;21.50;12.17;;;13.20;99.90;;;;;;4290394;33;20234;-65
2021/10/02 09:43:50;;;;;;;20.03;12.70;;;13.30;99.90;;;;;;4290047;33;20176;-64
2021/10/02 09:49:53;;;;;;;20.80;12.17;;;13.20;99.90;;;;;;4309881;33;20491;-65
2021/10/02 09:52:44;;;;;;;20.77;12.10;;;13.30;99.90;;;;;;4319493;33;20145;-65
2021/10/02 09:55:22;;;;;;;20.13;12.03;;;13.50;99.90;;;;;;4317631;33;20524;-65
2021/10/02 09:58:09;;;;;;;20.17;12.77;;;13.60;99.90;;;;;;4317822;33;20524;-66
2021/10/02 10:01:08;;;;;;;19.80;11.77;;;13.60;99.90;;;;;;4319128;33;20272;-68
2021/10/02 10:03:49;;;;;;;21.80;12.50;;;13.80;99.90;;;;;;4346350;32;20168;-68
2021/10/02 10:06:35;;;;;;;19.03;11.80;;;13.90;99.90;;;;;;4363994;32;20215;-65
2021/10/02 10:09:15;;;;;;;20.93;11.93;;;13.90;99.90;;;;;;4365736;32;20515;-66
2021/10/02 10:12:09;;;;;;;19.40;11.57;;;13.80;99.90;;;;;;4380155;32;20161;-68
2021/10/02 10:14:59;;;;;;;20.17;12.17;;;13.90;99.90;;;;;;4380147;32;20155;-69
2021/10/02 10:17:47;;;;;;;17.77;11.00;;;14.10;99.90;;;;;;4380145;32;20139;-65
2021/10/02 10:20:19;;;;;;;20.10;11.23;;;14.20;99.90;;;;;;4378692;32;20396;-68
2021/10/02 10:23:02;;;;;;;17.10;11.37;;;14.30;99.90;;;;;;4378792;32;20162;-65
2021/10/02 10:25:57;;;;;;;18.07;10.50;;;14.40;99.90;;;;;;4379889;32;20127;-66
2021/10/02 10:28:34;;;;;;;17.23;10.77;;;14.50;99.90;;;;;;4378468;32;20189;-65
2021/10/02 10:31:37;;;;;;;16.87;10.63;;;14.50;99.90;;;;;;4395250;32;20390;-65
2021/10/02 10:34:10;;;;;;;17.73;10.20;;;14.50;99.90;;;;;;4410139;32;20181;-65
2021/10/02 10:36:58;;;;;;;17.00;10.30;;;14.70;99.90;;;;;;4408825;32;20135;-66
2021/10/02 10:39:38;;;;;;;16.40;10.37;;;14.90;99.90;;;;;;4409829;32;20147;-66
2021/10/02 10:42:27;;;;;;;17.50;10.30;;;15.10;99.90;;;;;;4404655;32;20626;-65
2021/10/02 10:44:58;;;;;;;18.43;9.73;;;15.40;99.90;;;;;;4408405;32;20399;-66
2021/10/02 10:47:37;;;;;;;14.33;9.33;;;15.80;99.90;;;;;;4409851;32;20191;-66
2021/10/02 10:50:18;;;;;;;13.50;8.53;;;16.30;99.90;;;;;;4410458;32;20166;-66
2021/10/02 10:53:11;;;;;;;13.90;8.97;;;16.70;99.90;;;;;;4410199;32;20128;-67
2021/10/02 10:56:05;;;;;;;10.77;8.03;;;17.70;99.90;;;;;;4407890;32;20178;-66
2021/10/02 10:59:30;;;;;;;12.00;8.07;;;18.60;99.90;;;;;;4409950;32;20185;-66
2021/10/02 11:02:44;;;;;;;15.83;8.83;;;18.90;99.90;;;;;;4410457;32;20196;-66
2021/10/02 11:05:56;;;;;;;12.47;7.90;;;18.70;99.90;;;;;;4410357;32;20205;-67
2021/10/02 11:09:15;;;;;;;13.33;8.40;;;18.70;99.90;;;;;;4409043;32;20123;-67
2021/10/02 11:11:59;;;;;;;13.53;8.27;;;18.50;99.90;;;;;;4408463;32;20172;-65
2021/10/02 11:14:59;;;;;;;11.87;7.80;;;18.50;99.90;;;;;;4409875;32;20178;-67
2021/10/02 11:17:46;;;;;;;14.27;8.60;;;18.40;99.90;;;;;;4408022;32;20136;-65
2021/10/02 11:20:40;;;;;;;12.17;7.80;;;18.40;99.90;;;;;;4413132;32;20193;-64
2021/10/02 11:23:47;;;;;;;10.37;7.60;;;18.50;99.90;;;;;;4412989;32;20223;-64
2021/10/02 11:26:23;;;;;;;11.23;7.90;;;18.70;99.90;;;;;;4409471;32;20378;-64
2021/10/02 11:29:23;;;;;;;11.20;7.60;;;18.90;99.90;;;;;;4362558;33;20166;-64
2021/10/02 11:32:16;;;;;;;10.97;7.60;;;18.90;99.90;;;;;;4362014;33;20553;-64
2021/10/02 11:35:17;;;;;;;13.93;8.00;;;19.20;99.90;;;;;;4362358;33;20384;-65
2021/10/02 11:37:52;;;;;;;11.13;7.60;;;20.10;99.90;;;;;;4362492;33;20973;-63
2021/10/02 11:40:35;;;;;;;10.60;8.00;;;21.40;99.90;;;;;;4360605;33;20247;-63
2021/10/02 11:43:35;;;;;;;9.83;7.43;;;22.70;99.90;;;;;;4361467;32;20198;-64
2021/10/02 11:46:09;;;;;;;10.57;7.50;;;23.90;99.90;;;;;;4364948;32;20199;-64
2021/10/02 11:48:54;;;;;;;11.80;7.50;;;25.00;99.90;;;;;;4365031;32;20217;-64
2021/10/02 11:51:43;;;;;;;12.35;8.00;;;25.80;99.90;;;;;;4363596;32;20198;-64
2021/10/02 11:54:24;;;;;;;10.88;7.68;;;26.40;98.30;;;;;;4364792;32;20230;-64
2021/10/02 11:57:15;;;;;;;9.57;7.20;;;27.20;95.70;;;;;;4363247;33;20448;-64
2021/10/02 12:00:12;;;;;;;13.02;9.35;;;27.80;92.90;;;;;;4363710;32;20164;-64
2021/10/02 12:02:49;;;;;;;10.02;7.10;;;28.70;90.90;;;;;;4363732;33;20153;-64
2021/10/02 12:05:23;;;;;;;10.13;7.82;;;29.10;84.00;;;;;;4372781;32;20465;-63
2021/10/02 12:08:16;;;;;;;8.88;7.15;;;28.10;83.00;;;;;;4413732;32;20224;-65
2021/10/02 12:11:12;;;;;;;10.52;7.28;;;28.20;83.80;;;;;;4412795;32;20180;-63
2021/10/02 12:14:15;;;;;;;9.50;7.35;;;28.70;82.00;;;;;;4363539;33;20279;-64
2021/10/02 12:16:53;;;;;;;9.88;7.62;;;27.90;82.30;;;;;;4364263;32;20167;-63
2021/10/02 12:19:26;;;;;;;10.35;7.12;;;27.20;83.20;;;;;;4364504;32;20433;-64
2021/10/02 12:22:02;;;;;;;9.13;6.53;;;27.80;84.10;;;;;;4363150;32;20226;-63
2021/10/02 12:24:39;;;;;;;11.07;6.90;;;28.60;82.40;;;;;;4364984;32;20506;-63
2021/10/02 12:27:20;;;;;;;11.68;7.20;;;29.20;79.00;;;;;;4364785;32;20245;-63
2021/10/02 12:29:57;;;;;;;9.48;6.60;;;29.30;77.30;;;;;;4364577;32;20136;-64
2021/10/02 12:33:06;;;;;;;11.05;6.60;;;29.10;76.90;;;;;;4350283;33;20435;-63
2021/10/02 12:35:46;;;;;;;9.70;6.78;;;29.40;75.90;;;;;;4348447;33;20294;-63
2021/10/02 12:38:13;;;;;;;9.75;6.80;;;29.50;75.20;;;;;;4349886;33;20219;-63
2021/10/02 12:40:57;;;;;;;11.15;6.72;;;29.70;74.20;;;;;;4349786;33;20182;-63
2021/10/02 12:43:32;;;;;;;9.55;6.35;;;28.40;74.70;;;;;;4349950;33;20137;-63
2021/10/02 12:46:19;;;;;;;9.05;6.43;;;27.00;77.70;;;;;;4349339;33;20149;-65
2021/10/02 12:48:53;;;;;;;10.00;6.87;;;25.90;81.20;;;;;;4349902;33;20234;-64
2021/10/02 12:51:34;;;;;;;9.35;6.40;;;25.10;84.50;;;;;;4368043;32;20174;-63
2021/10/02 12:54:25;;;;;;;9.25;6.78;;;24.60;87.20;;;;;;4380811;32;20523;-63
2021/10/02 12:57:17;;;;;;;11.88;7.03;;;23.90;90.20;;;;;;4381700;32;20199;-64
2021/10/02 13:00:17;;;;;;;7.30;6.20;;;23.40;91.40;;;;;;4381645;32;20145;-64
2021/10/02 13:03:16;;;;;;;11.00;6.37;;;23.30;92.50;;;;;;4379621;32;20187;-64
2021/10/02 13:05:47;;;;;;;9.73;6.50;;;23.00;92.60;;;;;;4383238;32;20197;-63
2021/10/02 13:08:33;;;;;;;9.13;6.00;;;22.10;94.10;;;;;;4385898;32;20148;-64
2021/10/02 13:11:12;;;;;;;9.10;6.20;;;21.80;95.40;;;;;;4381505;32;20124;-63
2021/10/02 13:13:47;;;;;;;9.53;6.03;;;21.60;96.50;;;;;;4379741;32;20143;-65
2021/10/02 13:16:29;;;;;;;8.03;5.87;;;21.50;97.40;;;;;;4379121;32;20139;-65
2021/10/02 13:19:20;;;;;;;8.60;5.97;;;21.40;98.20;;;;;;4379451;32;20154;-64
2021/10/02 13:22:11;;;;;;;11.00;6.17;;;20.90;98.30;;;;;;4379749;32;20186;-64
2021/10/02 13:25:35;;;;;;;8.77;5.90;;;20.80;99.80;;;;;;4381259;32;20168;-64
2021/10/02 13:28:02;;;;;;;7.37;5.73;;;20.60;99.90;;;;;;4379795;32;20157;-64
2021/10/02 13:30:52;;;;;;;10.23;5.93;;;20.60;99.90;;;;;;4389343;32;20558;-65
2021/10/02 13:33:45;;;;;;;9.90;5.70;;;20.40;99.90;;;;;;4409762;32;20159;-64
2021/10/02 13:36:30;;;;;;;9.33;6.10;;;20.20;99.90;;;;;;4411469;32;20142;-65
2021/10/02 13:39:25;;;;;;;8.37;5.90;;;20.00;99.90;;;;;;4411015;32;20217;-64
2021/10/02 13:42:10;;;;;;;9.97;6.07;;;20.00;99.90;;;;;;4409577;32;20174;-64
2021/10/02 13:44:52;;;;;;;8.80;5.47;;;20.00;99.90;;;;;;4411316;32;20139;-64
2021/10/02 13:47:32;;;;;;;8.93;5.73;;;19.90;99.90;;;;;;4397485;32;20433;-64
2021/10/02 13:50:19;;;;;;;9.23;5.77;;;19.80;99.90;;;;;;4411014;32;20477;-65
2021/10/02 13:52:51;;;;;;;8.37;5.87;;;19.80;99.90;;;;;;4409503;32;20184;-64
2021/10/02 13:55:44;;;;;;;8.77;5.60;;;19.60;99.90;;;;;;4410728;32;20517;-65
2021/10/02 13:58:27;;;;;;;8.37;5.83;;;19.40;99.90;;;;;;4410957;32;20127;-63
2021/10/02 14:01:04;;;;;;;9.67;5.83;;;19.30;99.90;;;;;;4410507;32;20361;-64
2021/10/02 14:03:37;;;;;;;8.30;5.80;;;19.40;99.90;;;;;;4410716;32;20392;-64
2021/10/02 14:06:19;;;;;;;9.60;6.50;;;19.50;99.90;;;;;;4410501;32;20445;-64
2021/10/02 14:09:07;;;;;;;9.63;6.60;;;19.60;99.90;;;;;;4361975;33;20140;-63
2021/10/02 14:11:54;;;;;;;9.77;6.47;;;19.70;99.90;;;;;;4363453;32;20195;-64
2021/10/02 14:14:26;;;;;;;9.30;6.17;;;19.60;99.90;;;;;;4361416;33;20160;-63
2021/10/02 14:17:03;;;;;;;10.03;6.20;;;19.40;99.90;;;;;;4371889;32;20271;-63
2021/10/02 14:19:40;;;;;;;10.80;6.63;;;19.40;99.90;;;;;;4377828;32;20201;-64
2021/10/02 14:22:09;;;;;;;9.43;6.47;;;19.20;99.90;;;;;;4376638;32;20135;-64
2021/10/02 14:24:52;;;;;;;9.83;6.80;;;19.10;99.90;;;;;;4378567;32;20182;-63
2021/10/02 14:27:30;;;;;;;11.73;7.03;;;18.90;99.90;;;;;;4376425;32;20238;-63
2021/10/02 14:30:10;;;;;;;10.37;6.90;;;18.80;99.90;;;;;;4377854;32;20237;-65
2021/10/02 14:32:46;;;;;;;10.20;6.60;;;18.60;99.90;;;;;;4378234;32;20612;-63
2021/10/02 14:35:24;;;;;;;8.67;6.53;;;18.50;99.90;;;;;;4377941;32;20187;-63
2021/10/02 14:38:06;;;;;;;9.23;6.80;;;18.40;99.90;;;;;;4378067;32;20210;-64
2021/10/02 14:40:42;;;;;;;9.37;6.50;;;18.40;99.90;;;;;;4378230;32;20186;-64
2021/10/02 14:43:16;;;;;;;10.60;7.10;;;18.30;99.90;;;;;;4377525;32;20581;-64
2021/10/02 14:45:46;;;;;;;11.20;7.23;;;18.20;99.90;;;;;;4389166;32;20277;-64
2021/10/02 14:48:17;;;;;;;10.43;7.43;;;18.10;99.90;;;;;;4408164;32;20143;-67
2021/10/02 14:50:55;;;;;;;11.33;7.47;;;18.10;99.90;;;;;;4408393;32;20504;-64
2021/10/02 14:53:34;;;;;;;12.97;7.50;;;18.00;99.90;;;;;;4409302;32;20162;-64
2021/10/02 14:56:20;;;;;;;10.57;7.53;;;18.00;99.90;;;;;;4409139;32;20262;-64
2021/10/02 14:59:05;;;;;;;10.43;7.40;;;18.00;99.90;;;;;;4409503;32;20135;-63
2021/10/02 15:01:38;;;;;;;10.00;7.37;;;18.10;99.90;;;;;;4399836;32;20226;-63
2021/10/02 15:04:22;;;;;;;12.00;7.40;;;18.10;99.90;;;;;;4408468;32;20166;-63
2021/10/02 15:07:18;;;;;;;11.80;7.50;;;18.20;99.90;;;;;;4410186;32;20131;-63
2021/10/02 15:10:04;;;;;;;13.57;8.27;;;18.20;99.90;;;;;;4405181;32;20484;-64
2021/10/02 15:12:40;;;;;;;11.37;8.00;;;18.20;99.90;;;;;;4403161;32;20143;-64
2021/10/02 15:15:17;;;;;;;12.07;8.20;;;18.20;99.90;;;;;;4408084;32;20161;-64
2021/10/02 15:18:02;;;;;;;13.53;8.43;;;18.20;99.90;;;;;;4409487;32;20135;-63
2021/10/02 15:20:48;;;;;;;16.00;8.50;;;18.10;99.90;;;;;;4408651;32;20453;-64
2021/10/02 15:23:48;;;;;;;14.13;9.47;;;18.00;99.90;;;;;;4376208;32;20155;-63
2021/10/02 15:26:25;;;;;;;14.33;8.50;;;18.00;99.90;;;;;;4375823;32;20445;-63
2021/10/02 15:29:25;;;;;;;15.03;9.10;;;18.00;99.90;;;;;;4376200;32;20148;-64
2021/10/02 15:32:22;;;;;;;12.10;8.73;;;18.00;99.90;;;;;;4330802;33;20478;-64
2021/10/02 15:38:04;;;;;;;14.43;9.50;;;17.80;99.90;;;;;;4331035;33;20517;-64
2021/10/02 15:40:59;;;;;;;12.80;8.90;;;17.70;99.90;;;;;;4331218;33;20446;-65
2021/10/02 15:43:34;;;;;;;14.73;8.77;;;17.60;99.90;;;;;;4331177;33;20215;-63